Torrington, WY

4:10 PM MST on February 08, 2016 (GMT -0700)
Torrington Municipal | | Change Station
CLOSE
Current Station
Airport
Location: Torrington,
Elevation: 4206 ft
Nearby Weather Stations

Elev 4206 ft 42.06 °N, 104.15 °W | Updated 17 minutes ago

Overcast
Overcast
43 °F
Feels Like 35 °F
N
17
Wind Variable Wind from NNW
Gusts 26 mph

Today
High -- | Low -- °F
--% Chance of Precip.
Yesterday
High -- | Low -- °F
Precip. -- in
Pressure 30.37 in
Visibility 10.0 miles
Clouds Overcast 6000 ft
Windchill 35 °F
Dew Point 26 °F
Humidity 51%
Rainfall 0.00 in
Snow Depth Not available.
7:02 AM 5:19 PM
New Moon, 0% visible
METAR KTOR 082253Z AUTO 33015G23KT 10SM OVC060 06/M03 A3029 RMK AO2 SLP282 T00611033
Pressure 30.37 in
Visibility 10.0 miles
Clouds Overcast 6000 ft
Windchill 35 °F
Dew Point 26 °F
Humidity 51%
Rainfall 0.00 in
Snow Depth Not available.
7:02 AM 5:19 PM
New Moon, 0% visible
METAR KTOR 082253Z AUTO 33015G23KT 10SM OVC060 06/M03 A3029 RMK AO2 SLP282 T00611033

10-Day Weather Forecast

Almanac

Astronomy

Feb. 08, 2016 Rise Set
Actual Time
Civil Twilight
Nautical Twilight
Astronomical Twilight
Moon
Length of Visible Light
Length of Day
Tomorrow will be .
, % of the Moon is Illuminated

Today's Extremes

State Highs State Lows

Community

WunderPhotos

Upload Photos

1,891,523 photos uploaded!

WunderBlog® & News

Nearby

Air Quality

  Air Quality AQ Index Pollutant
Not available.

Snow Depth

Station Depth Elevation

Earthquake Activity

City Distance Mag. Time & Date
Minimum magnitude displayed is 2.5.

Coastal Water Temperatures

Place Temperature

Stations

Nearby Weather Stations

Station Location Temp. Windchill Dew Point Humidity Wind Precip. Elev Updated Type
                   

Watches & Warnings

There are currently no watches in effect.